Huvudsida
METAR-TAF:

METAR-TAF

Flygplatser :

Bergens flygplats. Flesland

Bergen, Norge

latitud: 60-17N, longitud: 005-14E, höjd: 5 m

Aktuellt väderrapport

Denna rapport gjordes för 25 minuter sedan, klockan 16:20 UTC
Vind 7 kt från ost/sydost, varierande mellan ost/nordost och syd/sydost
Temperatur 24°C
Fuktighet 24%
Tryck 1013 hPa
Sikt 10 km eller mer
Inga moln under 1 500 m eller inga cumulonimbus

METAR: ENBR 221620Z 11007KT 060V160 CAVOK 24/02 Q1013 NOSIG RMK WIND 1200FT 12010KT

Tid: 18:45 (16:45 UTC)

Väderprognos

Denna rapport gjordes för 4 timmar och 6 minuter sedan, klockan 12:39 UTC
Prognos gäller från 22 kl. 12 UTC till 23 kl. 12 UTC
Vind 7 kt från ost/sydost
Sikt 10 km eller mer
Inga moln under 1 500 m eller inga cumulonimbus

TAF: ENBR 221239Z 2212/2312 12007KT CAVOK

Aktuella väderrapporter och prognoser från 4000 flygplatser (METAR- och TAF-rapporter).

De tillgängliga stationerna syns som gula och röda prickar på kartan.

För musen över prickarna för att se namnen på stationerna.

Klicka sedan för att få väderrapporter och prognoser.

För att ändra kartan: Klicka på de gröna knapparna med ett svart kors på för att zooma in; den gröna knappen med ett streck på för att zooma ut; eller på de gröna pilarna för angränsande kartor.


METAR-TAF: